createdAt,value
2022-08-22T00:01:54.519Z,99.90
2022-08-22T00:02:46.132Z,99.90
2022-08-22T00:02:59.340Z,99.90
2022-08-22T00:03:02.619Z,99.90
2022-08-22T00:03:07.846Z,99.90
2022-08-22T00:04:47.402Z,99.90
2022-08-22T00:07:50.666Z,99.90
2022-08-22T00:10:31.418Z,99.90
2022-08-22T00:13:07.200Z,99.90
2022-08-22T00:15:43.622Z,99.90
2022-08-22T00:18:26.172Z,99.90
2022-08-22T00:21:04.313Z,99.90
2022-08-22T00:23:43.634Z,99.90
2022-08-22T00:26:24.674Z,99.90
2022-08-22T00:29:06.895Z,99.90
2022-08-22T00:31:36.900Z,99.90
2022-08-22T00:34:16.987Z,99.90
2022-08-22T00:37:02.230Z,99.90
2022-08-22T00:39:36.311Z,99.90
2022-08-22T00:42:15.002Z,99.90
2022-08-22T00:45:30.710Z,99.90
2022-08-22T00:48:31.273Z,99.90
2022-08-22T00:51:27.271Z,99.90
2022-08-22T00:54:23.384Z,99.90
2022-08-22T00:57:27.198Z,99.90
2022-08-22T01:00:17.227Z,99.90
2022-08-22T01:03:01.705Z,99.90
2022-08-22T01:05:54.981Z,99.90
2022-08-22T01:08:42.153Z,99.90
2022-08-22T01:11:11.984Z,99.90
2022-08-22T01:14:05.385Z,99.90
2022-08-22T01:16:35.099Z,99.90
2022-08-22T01:19:20.738Z,99.90
2022-08-22T01:22:35.422Z,99.90
2022-08-22T01:25:26.273Z,99.90
2022-08-22T01:28:30.685Z,99.90
2022-08-22T01:31:22.821Z,99.90
2022-08-22T01:34:14.364Z,99.90
2022-08-22T01:36:52.880Z,99.90
2022-08-22T01:39:55.142Z,99.90
2022-08-22T01:42:58.793Z,99.90
2022-08-22T01:46:13.936Z,99.90
2022-08-22T01:48:53.857Z,99.90
2022-08-22T01:51:36.573Z,99.90
2022-08-22T01:54:34.531Z,99.90
2022-08-22T01:57:05.287Z,99.90
2022-08-22T01:59:42.600Z,99.90
2022-08-22T02:02:21.176Z,99.90
2022-08-22T02:05:19.097Z,99.90
2022-08-22T02:07:48.729Z,99.90
2022-08-22T02:10:37.082Z,99.90
2022-08-22T02:13:30.517Z,99.90
2022-08-22T02:16:18.762Z,99.90
2022-08-22T02:19:26.684Z,99.90
2022-08-22T02:22:19.158Z,99.90
2022-08-22T02:25:06.971Z,99.90
2022-08-22T02:27:54.194Z,99.90
2022-08-22T02:30:59.894Z,99.90
2022-08-22T02:33:38.523Z,99.90
2022-08-22T02:36:43.441Z,99.90
2022-08-22T02:39:22.253Z,99.90
2022-08-22T02:42:01.583Z,99.90
2022-08-22T02:44:36.425Z,99.90
2022-08-22T02:47:20.571Z,99.90
2022-08-22T02:50:02.229Z,99.90
2022-08-22T02:52:40.078Z,99.90
2022-08-22T02:55:13.317Z,99.90
2022-08-22T02:58:05.847Z,99.90
2022-08-22T03:00:50.879Z,99.90
2022-08-22T03:03:23.559Z,99.90
2022-08-22T03:06:01.601Z,99.90
2022-08-22T03:08:32.804Z,99.90
2022-08-22T03:11:29.914Z,99.90
2022-08-22T03:14:16.329Z,99.90
2022-08-22T03:16:54.665Z,99.90
2022-08-22T03:19:30.203Z,99.90
2022-08-22T03:22:02.915Z,99.90
2022-08-22T03:24:50.873Z,99.90
2022-08-22T03:27:50.080Z,99.90
2022-08-22T03:30:27.694Z,99.90
2022-08-22T03:33:20.180Z,99.90
2022-08-22T03:35:46.717Z,99.90
2022-08-22T03:38:29.618Z,99.90
2022-08-22T03:41:17.623Z,99.90
2022-08-22T03:44:21.400Z,99.90
2022-08-22T03:47:10.294Z,99.90
2022-08-22T03:49:59.653Z,99.90
2022-08-22T03:53:07.527Z,99.90
2022-08-22T03:56:08.789Z,99.90
2022-08-22T03:59:12.272Z,99.90
2022-08-22T04:01:56.743Z,99.90
2022-08-22T04:04:59.503Z,99.90
2022-08-22T04:08:27.522Z,99.90
2022-08-22T04:11:25.656Z,99.90
2022-08-22T04:14:25.497Z,99.90
2022-08-22T04:17:30.454Z,99.90
2022-08-22T04:20:16.818Z,99.90
2022-08-22T04:23:02.059Z,99.90
2022-08-22T04:25:36.175Z,99.90
2022-08-22T04:28:11.605Z,99.90
2022-08-22T04:30:56.845Z,99.90
2022-08-22T04:33:32.920Z,99.90
2022-08-22T04:36:29.574Z,99.90
2022-08-22T04:39:14.861Z,99.90
2022-08-22T04:42:00.690Z,99.90
2022-08-22T04:44:46.461Z,99.90
2022-08-22T04:47:36.306Z,99.90
2022-08-22T04:50:21.027Z,99.90
2022-08-22T04:53:00.270Z,99.90
2022-08-22T04:55:51.115Z,99.90
2022-08-22T04:58:48.800Z,99.90
2022-08-22T05:01:26.544Z,99.90
2022-08-22T05:03:55.876Z,99.90
2022-08-22T05:06:26.984Z,99.90
2022-08-22T05:08:55.791Z,99.90
2022-08-22T05:11:24.658Z,99.90
2022-08-22T05:14:04.034Z,99.90
2022-08-22T05:16:38.666Z,99.90
2022-08-22T05:19:27.120Z,99.90
2022-08-22T05:21:57.373Z,99.90
2022-08-22T05:24:32.486Z,99.90
2022-08-22T05:27:08.713Z,99.90
2022-08-22T05:29:40.903Z,99.90
2022-08-22T05:32:14.006Z,99.90
2022-08-22T05:34:45.266Z,99.90
2022-08-22T05:37:24.055Z,99.90
2022-08-22T05:39:54.741Z,99.90
2022-08-22T05:42:33.101Z,99.90
2022-08-22T05:45:06.697Z,99.90
2022-08-22T05:47:46.353Z,99.90
2022-08-22T05:50:15.166Z,99.90
2022-08-22T05:53:06.140Z,99.90
2022-08-22T05:55:48.054Z,99.90
2022-08-22T05:58:27.263Z,99.90
2022-08-22T06:01:08.326Z,99.90
2022-08-22T06:03:46.521Z,99.90
2022-08-22T06:06:18.085Z,99.90
2022-08-22T06:08:58.472Z,99.90
2022-08-22T06:11:33.920Z,99.90
2022-08-22T06:14:18.761Z,99.90
2022-08-22T06:17:05.360Z,99.90
2022-08-22T06:19:38.733Z,99.90
2022-08-22T06:22:06.162Z,99.90
2022-08-22T06:24:38.025Z,99.90
2022-08-22T06:27:09.982Z,99.90
2022-08-22T06:29:40.757Z,99.90
2022-08-22T06:32:14.200Z,99.90
2022-08-22T06:34:44.780Z,99.90
2022-08-22T06:37:22.848Z,99.90
2022-08-22T06:39:53.754Z,99.90
2022-08-22T06:42:24.975Z,99.90
2022-08-22T06:44:57.790Z,99.90
2022-08-22T06:47:31.207Z,99.90
2022-08-22T06:50:14.085Z,99.90
2022-08-22T06:52:59.498Z,99.90
2022-08-22T06:55:28.910Z,99.90
2022-08-22T06:58:11.865Z,99.90
2022-08-22T07:00:42.518Z,99.90
2022-08-22T07:03:21.170Z,99.90
2022-08-22T07:05:47.945Z,99.90
2022-08-22T07:08:20.361Z,99.90
2022-08-22T07:11:21.695Z,99.90
2022-08-22T07:13:57.271Z,99.90
2022-08-22T07:16:35.417Z,99.90
2022-08-22T07:19:02.594Z,99.90
2022-08-22T07:21:43.762Z,99.90
2022-08-22T07:24:16.953Z,99.90
2022-08-22T07:27:23.598Z,99.90
2022-08-22T07:30:09.989Z,99.90
2022-08-22T07:33:21.072Z,99.90
2022-08-22T07:35:53.376Z,99.90
2022-08-22T07:38:43.762Z,99.90
2022-08-22T07:41:29.606Z,99.90
2022-08-22T07:44:18.865Z,99.90
2022-08-22T07:47:00.729Z,99.90
2022-08-22T07:49:33.736Z,99.90
2022-08-22T07:52:08.224Z,99.90
2022-08-22T07:54:54.585Z,99.90
2022-08-22T07:57:32.065Z,99.90
2022-08-22T08:00:00.474Z,99.90
2022-08-22T08:02:28.658Z,99.90
2022-08-22T08:04:57.598Z,99.90
2022-08-22T08:07:27.403Z,99.90
2022-08-22T08:10:07.976Z,99.90
2022-08-22T08:12:57.938Z,99.90
2022-08-22T08:15:32.048Z,99.90
2022-08-22T08:18:06.250Z,99.90
2022-08-22T08:20:35.505Z,99.90
2022-08-22T08:23:03.916Z,99.90
2022-08-22T08:25:33.961Z,99.90
2022-08-22T08:28:19.593Z,99.90
2022-08-22T08:30:59.875Z,99.90
2022-08-22T08:33:29.103Z,99.90
2022-08-22T08:36:04.195Z,99.90
2022-08-22T08:38:54.797Z,99.90
2022-08-22T08:41:55.280Z,99.90
2022-08-22T08:44:24.280Z,99.90
2022-08-22T08:46:57.367Z,99.90
2022-08-22T08:49:47.253Z,99.90
2022-08-22T08:52:52.945Z,99.90
2022-08-22T08:55:47.347Z,99.90
2022-08-22T08:58:22.747Z,99.90
2022-08-22T09:04:02.250Z,99.90
2022-08-22T09:07:08.562Z,99.90
2022-08-22T09:09:56.363Z,99.90
2022-08-22T09:13:12.235Z,99.90
2022-08-22T09:16:13.349Z,99.90
2022-08-22T09:19:07.642Z,99.90
2022-08-22T09:22:02.092Z,99.90
2022-08-22T09:24:56.633Z,99.90
2022-08-22T09:27:30.988Z,99.90
2022-08-22T09:30:19.842Z,99.90
2022-08-22T09:33:12.560Z,99.90
2022-08-22T09:36:05.067Z,99.90
2022-08-22T09:38:50.663Z,99.90
2022-08-22T09:40:16.562Z,99.90
2022-08-22T09:41:37.423Z,99.90
2022-08-22T09:44:29.725Z,99.90
2022-08-22T09:47:24.538Z,99.90
2022-08-22T09:50:10.162Z,99.90
2022-08-22T09:53:01.468Z,99.30
2022-08-22T09:55:38.713Z,98.60
2022-08-22T09:58:29.981Z,97.20
2022-08-22T10:01:15.661Z,97.70
2022-08-22T10:03:45.337Z,96.30
2022-08-22T10:06:27.476Z,97.10
2022-08-22T10:09:16.313Z,96.20
2022-08-22T10:11:49.909Z,95.40
2022-08-22T10:14:38.373Z,95.10
2022-08-22T10:17:21.754Z,95.30
2022-08-22T10:19:57.557Z,94.30
2022-08-22T10:22:44.598Z,94.60
2022-08-22T10:25:35.229Z,95.80
2022-08-22T10:28:16.917Z,94.80
2022-08-22T10:31:17.381Z,94.60
2022-08-22T10:33:49.709Z,94.10
2022-08-22T10:36:26.732Z,94.70
2022-08-22T10:38:59.957Z,95.20
2022-08-22T10:42:00.579Z,94.80
2022-08-22T10:44:43.776Z,94.50
2022-08-22T10:47:20.694Z,93.70
2022-08-22T10:49:56.670Z,94.40
2022-08-22T10:52:27.167Z,94.60
2022-08-22T10:55:18.807Z,94.20
2022-08-22T10:58:33.026Z,94.10
2022-08-22T11:01:37.001Z,94.20
2022-08-22T11:04:05.903Z,94.40
2022-08-22T11:07:09.406Z,94.60
2022-08-22T11:09:43.727Z,94.30
2022-08-22T11:12:19.214Z,93.90
2022-08-22T11:15:14.170Z,93.90
2022-08-22T11:18:20.277Z,93.80
2022-08-22T11:21:00.674Z,93.50
2022-08-22T11:23:41.553Z,93.10
2022-08-22T11:26:35.726Z,93.10
2022-08-22T11:29:24.749Z,93.60
2022-08-22T11:32:06.563Z,92.80
2022-08-22T11:34:51.694Z,92.40
2022-08-22T11:37:45.479Z,91.40
2022-08-22T11:40:35.343Z,91.40
2022-08-22T11:43:32.795Z,90.90
2022-08-22T11:46:13.686Z,89.50
2022-08-22T11:49:08.987Z,90.00
2022-08-22T11:51:57.229Z,88.50
2022-08-22T11:54:51.694Z,86.90
2022-08-22T11:57:26.494Z,84.70
2022-08-22T12:00:02.599Z,85.30
2022-08-22T12:02:47.797Z,84.60
2022-08-22T12:05:24.371Z,81.10
2022-08-22T12:08:03.534Z,81.50
2022-08-22T12:10:34.086Z,80.20
2022-08-22T12:13:19.344Z,80.30
2022-08-22T12:16:10.787Z,81.00
2022-08-22T12:18:45.253Z,81.00
2022-08-22T12:21:39.022Z,81.00
2022-08-22T12:24:35.862Z,80.10
2022-08-22T12:27:18.432Z,79.60
2022-08-22T12:30:04.844Z,79.30
2022-08-22T12:33:09.503Z,79.20
2022-08-22T12:35:54.847Z,79.20
2022-08-22T12:38:59.070Z,79.00
2022-08-22T12:41:59.837Z,79.80
2022-08-22T12:44:46.550Z,79.90
2022-08-22T12:47:32.211Z,79.30
2022-08-22T12:50:23.644Z,77.80
2022-08-22T12:53:20.277Z,78.00
2022-08-22T12:56:14.292Z,77.70
2022-08-22T12:59:16.026Z,78.20
2022-08-22T13:01:47.745Z,76.00
2022-08-22T13:04:32.719Z,76.50
2022-08-22T13:07:29.031Z,77.20
2022-08-22T13:10:22.093Z,78.80
2022-08-22T13:12:53.628Z,78.30
2022-08-22T13:15:31.745Z,76.70
2022-08-22T13:18:18.956Z,76.00
2022-08-22T13:20:51.487Z,76.10
2022-08-22T13:23:26.219Z,75.30
2022-08-22T13:26:07.642Z,75.60
2022-08-22T13:28:41.562Z,74.90
2022-08-22T13:31:09.441Z,74.40
2022-08-22T13:33:46.935Z,73.20
2022-08-22T13:36:22.970Z,71.90
2022-08-22T13:38:56.099Z,71.10
2022-08-22T13:41:34.502Z,71.50
2022-08-22T13:44:17.017Z,71.60
2022-08-22T13:47:12.876Z,72.30
2022-08-22T13:49:37.405Z,72.10
2022-08-22T13:52:30.413Z,70.90
2022-08-22T13:55:12.632Z,71.10
2022-08-22T13:57:51.749Z,70.80
2022-08-22T14:00:29.433Z,70.90
2022-08-22T14:03:05.717Z,71.10
2022-08-22T14:06:32.724Z,73.10
2022-08-22T14:08:46.938Z,72.20
2022-08-22T14:11:48.350Z,73.50
2022-08-22T14:14:24.551Z,74.90
2022-08-22T14:16:55.139Z,75.80
2022-08-22T14:19:52.865Z,75.70
2022-08-22T14:22:31.886Z,75.40
2022-08-22T14:25:02.469Z,77.70
2022-08-22T14:27:32.867Z,77.10
2022-08-22T14:30:05.743Z,77.10
2022-08-22T14:33:02.534Z,77.00
2022-08-22T14:35:40.615Z,76.40
2022-08-22T14:38:31.797Z,75.90
2022-08-22T14:41:09.765Z,76.50
2022-08-22T14:43:51.143Z,75.70
2022-08-22T14:46:44.052Z,75.10
2022-08-22T14:49:29.270Z,76.10
2022-08-22T14:52:07.306Z,74.40
2022-08-22T14:54:36.794Z,74.20
2022-08-22T14:57:10.251Z,73.60
2022-08-22T14:59:40.165Z,71.50
2022-08-22T15:02:27.543Z,71.20
2022-08-22T15:04:55.903Z,70.70
2022-08-22T15:07:26.919Z,69.90
2022-08-22T15:10:03.399Z,69.60
2022-08-22T15:12:34.642Z,70.60
2022-08-22T15:15:27.242Z,70.00
2022-08-22T15:17:54.431Z,70.50
2022-08-22T15:20:45.239Z,71.00
2022-08-22T15:23:25.228Z,71.10
2022-08-22T15:26:04.018Z,70.90
2022-08-22T15:28:52.640Z,70.70
2022-08-22T15:31:21.317Z,69.90
2022-08-22T15:33:49.498Z,72.20
2022-08-22T15:36:25.577Z,71.50
2022-08-22T15:39:17.022Z,74.80
2022-08-22T15:41:48.858Z,76.20
2022-08-22T15:44:31.028Z,76.50
2022-08-22T15:47:10.852Z,76.00
2022-08-22T15:49:54.870Z,78.40
2022-08-22T15:52:30.590Z,79.30
2022-08-22T15:55:23.260Z,79.90
2022-08-22T15:58:05.246Z,79.60
2022-08-22T16:01:04.706Z,80.50
2022-08-22T16:04:07.666Z,80.70
2022-08-22T16:07:01.391Z,80.60
2022-08-22T16:09:48.242Z,79.80
2022-08-22T16:12:40.510Z,80.10
2022-08-22T16:15:45.868Z,80.70
2022-08-22T16:18:34.316Z,81.10
2022-08-22T16:21:13.934Z,81.20
2022-08-22T16:23:46.643Z,81.10
2022-08-22T16:26:23.537Z,80.10
2022-08-22T16:28:59.523Z,79.50
2022-08-22T16:31:56.194Z,78.90
2022-08-22T16:34:38.422Z,78.40
2022-08-22T16:37:14.616Z,78.40
2022-08-22T16:39:58.341Z,79.00
2022-08-22T16:42:51.241Z,78.40
2022-08-22T16:45:35.341Z,79.30
2022-08-22T16:48:26.523Z,80.20
2022-08-22T16:51:17.918Z,79.20
2022-08-22T16:54:08.636Z,78.20
2022-08-22T16:56:47.718Z,77.30
2022-08-22T16:59:23.457Z,77.10
2022-08-22T17:02:05.182Z,77.50
2022-08-22T17:04:53.884Z,77.90
2022-08-22T17:08:07.950Z,76.40
2022-08-22T17:10:59.122Z,76.50
2022-08-22T17:13:46.828Z,76.80
2022-08-22T17:16:35.340Z,77.30
2022-08-22T17:19:16.974Z,78.20
2022-08-22T17:21:55.705Z,78.40
2022-08-22T17:24:38.496Z,79.10
2022-08-22T17:27:17.761Z,80.00
2022-08-22T17:29:53.894Z,81.10
2022-08-22T17:32:36.499Z,81.50
2022-08-22T17:35:22.637Z,82.20
2022-08-22T17:38:09.747Z,83.20
2022-08-22T17:40:36.342Z,84.00
2022-08-22T17:43:09.714Z,84.80
2022-08-22T17:45:49.242Z,84.80
2022-08-22T17:48:24.695Z,85.10
2022-08-22T17:50:57.760Z,84.70
2022-08-22T17:53:33.147Z,85.30
2022-08-22T17:56:18.350Z,84.50
2022-08-22T17:59:09.394Z,84.90
2022-08-22T18:02:01.193Z,84.90
2022-08-22T18:04:54.170Z,85.80
2022-08-22T18:07:27.753Z,85.40
2022-08-22T18:10:24.531Z,85.90
2022-08-22T18:13:00.516Z,86.20
2022-08-22T18:15:47.140Z,86.80
2022-08-22T18:18:25.775Z,87.10
2022-08-22T18:21:10.856Z,87.70
2022-08-22T18:23:56.060Z,88.00
2022-08-22T18:26:55.128Z,88.40
2022-08-22T18:29:31.402Z,88.70
2022-08-22T18:32:12.403Z,90.20
2022-08-22T18:35:07.345Z,90.40
2022-08-22T18:37:35.424Z,90.70
2022-08-22T18:40:26.491Z,91.30
2022-08-22T18:43:15.005Z,91.60
2022-08-22T18:45:47.349Z,92.40
2022-08-22T18:48:34.114Z,92.40
2022-08-22T18:51:25.087Z,93.10
2022-08-22T18:54:14.443Z,93.50
2022-08-22T18:56:53.962Z,93.50
2022-08-22T18:59:43.629Z,94.20
2022-08-22T19:02:34.536Z,94.70
2022-08-22T19:05:18.790Z,96.20
2022-08-22T19:08:01.274Z,96.90
2022-08-22T19:10:34.840Z,97.40
2022-08-22T19:13:10.405Z,98.60
2022-08-22T19:16:04.749Z,99.90
2022-08-22T19:18:55.341Z,99.90
2022-08-22T19:21:53.578Z,99.90
2022-08-22T19:24:20.145Z,99.90
2022-08-22T19:26:51.278Z,99.90
2022-08-22T19:29:17.848Z,99.90
2022-08-22T19:32:13.122Z,99.90
2022-08-22T19:34:46.881Z,99.90
2022-08-22T19:37:32.861Z,99.90
2022-08-22T19:40:11.018Z,99.90
2022-08-22T19:42:44.046Z,99.90
2022-08-22T19:45:26.414Z,99.90
2022-08-22T19:47:58.044Z,99.90
2022-08-22T19:50:31.029Z,99.90
2022-08-22T19:53:04.807Z,99.90
2022-08-22T19:55:45.339Z,99.90
2022-08-22T19:58:30.290Z,99.90
2022-08-22T20:01:28.661Z,99.90
2022-08-22T20:04:03.962Z,99.90
2022-08-22T20:07:00.883Z,99.90
2022-08-22T20:09:46.476Z,99.90
2022-08-22T20:12:29.276Z,99.90
2022-08-22T20:14:56.843Z,99.90
2022-08-22T20:17:26.863Z,99.90
2022-08-22T20:23:03.049Z,99.90
2022-08-22T20:25:44.232Z,99.90
2022-08-22T20:28:24.976Z,99.90
2022-08-22T20:30:57.768Z,99.90
2022-08-22T20:33:33.191Z,99.90
2022-08-22T20:36:05.167Z,99.90
2022-08-22T20:38:36.971Z,99.90
2022-08-22T20:41:20.182Z,99.90
2022-08-22T20:43:52.980Z,99.90
2022-08-22T20:46:53.226Z,99.90
2022-08-22T20:49:31.463Z,99.90
2022-08-22T20:52:01.127Z,99.90
2022-08-22T20:54:33.535Z,99.90
2022-08-22T20:57:11.036Z,99.90
2022-08-22T20:59:41.724Z,99.90
2022-08-22T21:02:08.295Z,99.90
2022-08-22T21:05:00.072Z,99.90
2022-08-22T21:07:34.282Z,99.90
2022-08-22T21:10:27.684Z,99.90
2022-08-22T21:13:01.318Z,99.90
2022-08-22T21:15:37.986Z,99.90
2022-08-22T21:18:05.623Z,99.90
2022-08-22T21:20:35.982Z,99.90
2022-08-22T21:23:12.104Z,99.90
2022-08-22T21:25:58.817Z,99.90
2022-08-22T21:28:35.554Z,99.90
2022-08-22T21:31:11.648Z,99.90
2022-08-22T21:33:44.558Z,99.90
2022-08-22T21:36:14.000Z,99.90
2022-08-22T21:38:59.849Z,99.90
2022-08-22T21:41:34.057Z,99.90
2022-08-22T21:44:19.449Z,99.90
2022-08-22T21:46:46.148Z,99.90
2022-08-22T21:49:26.882Z,99.90
2022-08-22T21:51:54.122Z,99.90
2022-08-22T21:54:29.570Z,99.90
2022-08-22T21:56:57.774Z,99.90
2022-08-22T21:59:51.076Z,99.90
2022-08-22T22:02:29.905Z,99.90
2022-08-22T22:04:59.628Z,99.90
2022-08-22T22:07:27.421Z,99.90
2022-08-22T22:09:55.018Z,99.90
2022-08-22T22:12:23.366Z,99.90
2022-08-22T22:14:50.452Z,99.90
2022-08-22T22:17:18.974Z,99.90
2022-08-22T22:19:46.055Z,99.90
2022-08-22T22:22:13.805Z,99.90
2022-08-22T22:24:40.517Z,99.90
2022-08-22T22:27:07.347Z,99.90
2022-08-22T22:29:34.609Z,99.90
2022-08-22T22:32:01.619Z,99.90
2022-08-22T22:34:28.259Z,99.90
2022-08-22T22:36:55.070Z,99.90
2022-08-22T22:39:21.801Z,99.90
2022-08-22T22:41:49.110Z,99.90
2022-08-22T22:44:15.735Z,99.90
2022-08-22T22:46:42.367Z,99.90
2022-08-22T22:49:09.019Z,99.90
2022-08-22T22:51:35.821Z,99.90
2022-08-22T22:54:02.514Z,99.90
2022-08-22T22:56:29.660Z,99.90
2022-08-22T22:58:58.936Z,99.90
2022-08-22T23:01:27.826Z,99.90
2022-08-22T23:03:57.020Z,99.90
2022-08-22T23:06:25.358Z,99.90
2022-08-22T23:08:52.710Z,99.90
2022-08-22T23:11:26.553Z,99.90
2022-08-22T23:13:53.413Z,99.90
2022-08-22T23:16:25.945Z,99.90
2022-08-22T23:18:52.842Z,99.90
2022-08-22T23:21:21.763Z,99.90
2022-08-22T23:23:49.372Z,99.90
2022-08-22T23:26:16.765Z,99.90
2022-08-22T23:28:44.226Z,99.90
2022-08-22T23:31:26.754Z,99.90
2022-08-22T23:33:53.719Z,99.90
2022-08-22T23:36:22.036Z,99.90
2022-08-22T23:38:49.933Z,99.90
2022-08-22T23:41:18.605Z,99.90
2022-08-22T23:43:48.898Z,99.90
2022-08-22T23:46:16.886Z,99.90
2022-08-22T23:48:43.825Z,99.90
2022-08-22T23:51:11.908Z,99.90
2022-08-22T23:53:38.870Z,99.90
2022-08-22T23:56:19.490Z,99.90
2022-08-22T23:58:47.433Z,99.90
